createdAt,value
2022-08-30T00:02:03.113Z,6.60
2022-08-30T00:04:31.104Z,6.82
2022-08-30T00:06:59.106Z,6.55
2022-08-30T00:09:27.104Z,6.18
2022-08-30T00:11:55.170Z,6.43
2022-08-30T00:14:23.231Z,6.75
2022-08-30T00:16:51.193Z,7.55
2022-08-30T00:19:20.609Z,6.93
2022-08-30T00:21:48.594Z,6.75
2022-08-30T00:24:16.647Z,6.38
2022-08-30T00:26:44.686Z,6.20
2022-08-30T00:29:12.727Z,6.43
2022-08-30T00:31:40.749Z,6.07
2022-08-30T00:34:08.746Z,6.30
2022-08-30T00:36:38.108Z,6.03
2022-08-30T00:39:06.535Z,5.57
2022-08-30T00:41:35.052Z,5.75
2022-08-30T00:44:03.426Z,6.50
2022-08-30T00:46:32.530Z,6.00
2022-08-30T00:49:03.761Z,6.38
2022-08-30T00:51:33.488Z,6.38
2022-08-30T00:54:04.009Z,6.90
2022-08-30T00:56:33.743Z,6.43
2022-08-30T00:59:03.344Z,6.40
2022-08-30T01:01:34.065Z,6.90
2022-08-30T01:04:02.985Z,6.50
2022-08-30T01:06:32.936Z,6.63
2022-08-30T01:09:04.644Z,6.97
2022-08-30T01:11:34.511Z,7.30
2022-08-30T01:14:03.989Z,7.75
2022-08-30T01:16:33.512Z,8.63
2022-08-30T01:19:03.560Z,8.70
2022-08-30T01:21:39.552Z,8.77
2022-08-30T01:24:10.613Z,8.02
2022-08-30T01:26:39.846Z,8.32
2022-08-30T01:29:11.416Z,9.07
2022-08-30T01:31:39.402Z,8.07
2022-08-30T01:34:08.487Z,7.25
2022-08-30T01:36:37.903Z,6.72
2022-08-30T01:39:16.171Z,7.10
2022-08-30T01:41:44.415Z,7.22
2022-08-30T01:44:14.511Z,7.13
2022-08-30T01:46:45.682Z,7.22
2022-08-30T01:49:15.840Z,7.18
2022-08-30T01:51:44.643Z,7.28
2022-08-30T01:54:14.700Z,7.75
2022-08-30T01:56:42.915Z,7.72
2022-08-30T01:59:10.947Z,7.20
2022-08-30T02:01:39.997Z,7.55
2022-08-30T02:04:09.886Z,8.15
2022-08-30T02:06:39.667Z,7.43
2022-08-30T02:09:08.000Z,8.02
2022-08-30T02:11:37.392Z,8.25
2022-08-30T02:14:05.566Z,8.50
2022-08-30T02:16:34.505Z,8.20
2022-08-30T02:19:02.761Z,8.10
2022-08-30T02:21:30.832Z,8.48
2022-08-30T02:23:59.193Z,9.60
2022-08-30T02:26:27.731Z,9.93
2022-08-30T02:28:59.141Z,9.63
2022-08-30T02:31:27.657Z,10.38
2022-08-30T02:33:55.759Z,9.80
2022-08-30T02:36:24.007Z,9.20
2022-08-30T02:38:52.823Z,8.98
2022-08-30T02:41:21.259Z,8.35
2022-08-30T02:43:49.328Z,8.10
2022-08-30T02:46:19.222Z,7.78
2022-08-30T02:48:47.308Z,8.15
2022-08-30T02:51:16.212Z,7.75
2022-08-30T02:53:45.342Z,7.68
2022-08-30T02:56:14.911Z,8.48
2022-08-30T02:58:44.120Z,8.05
2022-08-30T03:01:13.564Z,8.00
2022-08-30T03:03:44.334Z,8.63
2022-08-30T03:06:12.436Z,8.88
2022-08-30T03:08:40.440Z,8.40
2022-08-30T03:11:08.683Z,8.73
2022-08-30T03:13:36.934Z,9.57
2022-08-30T03:16:05.182Z,8.93
2022-08-30T03:18:33.536Z,10.02
2022-08-30T03:21:02.933Z,11.38
2022-08-30T03:23:31.531Z,10.63
2022-08-30T03:25:59.519Z,11.18
2022-08-30T03:28:27.589Z,10.30
2022-08-30T03:30:55.926Z,8.30
2022-08-30T03:33:23.946Z,8.20
2022-08-30T03:35:52.653Z,6.45
2022-08-30T03:38:22.099Z,7.15
2022-08-30T03:40:50.063Z,6.82
2022-08-30T03:43:18.926Z,7.60
2022-08-30T03:45:47.724Z,7.05
2022-08-30T03:48:15.840Z,7.22
2022-08-30T03:50:43.823Z,7.78
2022-08-30T03:53:11.859Z,8.27
2022-08-30T03:55:41.226Z,7.35
2022-08-30T03:58:09.327Z,7.50
2022-08-30T04:00:37.516Z,8.32
2022-08-30T04:03:05.800Z,7.78
2022-08-30T04:05:34.113Z,8.15
2022-08-30T04:08:02.106Z,7.90
2022-08-30T04:10:32.393Z,7.75
2022-08-30T04:13:01.720Z,7.75
2022-08-30T04:15:29.979Z,7.13
2022-08-30T04:17:57.969Z,7.95
2022-08-30T04:20:25.994Z,7.80
2022-08-30T04:22:53.987Z,8.25
2022-08-30T04:25:22.001Z,7.20
2022-08-30T04:27:50.372Z,7.40
2022-08-30T04:30:20.054Z,8.20
2022-08-30T04:32:48.032Z,8.38
2022-08-30T04:35:16.093Z,8.07
2022-08-30T04:37:44.077Z,9.10
2022-08-30T04:40:14.159Z,9.93
2022-08-30T04:42:44.004Z,9.55
2022-08-30T04:45:15.625Z,9.98
2022-08-30T04:47:45.603Z,10.30
2022-08-30T04:50:17.764Z,11.15
2022-08-30T04:52:46.484Z,9.35
2022-08-30T04:55:19.880Z,9.57
2022-08-30T04:57:48.429Z,11.00
2022-08-30T05:00:17.056Z,10.90
2022-08-30T05:02:46.492Z,11.38
2022-08-30T05:05:32.135Z,10.90
2022-08-30T05:08:00.368Z,11.95
2022-08-30T05:10:28.749Z,11.52
2022-08-30T05:12:56.804Z,11.95
2022-08-30T05:15:24.875Z,11.38
2022-08-30T05:17:54.194Z,12.27
2022-08-30T05:20:22.246Z,11.02
2022-08-30T05:22:53.650Z,11.43
2022-08-30T05:25:25.503Z,12.45
2022-08-30T05:27:54.423Z,13.20
2022-08-30T05:30:23.950Z,12.30
2022-08-30T05:32:54.020Z,11.63
2022-08-30T05:35:25.723Z,11.27
2022-08-30T05:37:54.226Z,12.05
2022-08-30T05:40:22.815Z,13.77
2022-08-30T05:42:50.917Z,11.95
2022-08-30T05:45:19.405Z,11.98
2022-08-30T05:47:47.907Z,12.15
2022-08-30T05:50:17.507Z,11.82
2022-08-30T05:52:46.105Z,11.75
2022-08-30T05:55:14.513Z,11.30
2022-08-30T05:57:43.132Z,10.15
2022-08-30T06:00:15.287Z,9.88
2022-08-30T06:02:43.680Z,9.20
2022-08-30T06:05:14.309Z,9.88
2022-08-30T06:07:44.070Z,9.77
2022-08-30T06:10:12.629Z,10.13
2022-08-30T06:12:40.909Z,11.40
2022-08-30T06:15:09.969Z,11.02
2022-08-30T06:17:39.711Z,10.32
2022-08-30T06:20:09.532Z,10.93
2022-08-30T06:22:38.690Z,11.32
2022-08-30T06:25:09.478Z,10.52
2022-08-30T06:27:37.524Z,10.80
2022-08-30T06:30:08.268Z,11.38
2022-08-30T06:32:36.372Z,10.95
2022-08-30T06:35:04.979Z,12.13
2022-08-30T06:37:33.796Z,13.00
2022-08-30T06:40:03.140Z,13.15
2022-08-30T06:42:34.631Z,12.57
2022-08-30T06:45:11.088Z,13.80
2022-08-30T06:47:39.985Z,13.00
2022-08-30T06:50:11.944Z,15.48
2022-08-30T06:52:40.669Z,15.32
2022-08-30T06:55:09.592Z,13.40
2022-08-30T06:57:39.546Z,13.52
2022-08-30T07:00:10.353Z,11.60
2022-08-30T07:02:38.785Z,12.27
2022-08-30T07:05:07.971Z,11.27
2022-08-30T07:07:36.553Z,10.63
2022-08-30T07:10:05.786Z,11.13
2022-08-30T07:12:33.838Z,11.35
2022-08-30T07:15:03.816Z,12.40
2022-08-30T07:17:49.393Z,11.82
2022-08-30T07:20:18.451Z,11.82
2022-08-30T07:22:46.556Z,11.65
2022-08-30T07:25:15.369Z,11.70
2022-08-30T07:27:44.087Z,13.07
2022-08-30T07:30:14.359Z,12.20
2022-08-30T07:32:42.382Z,11.65
2022-08-30T07:35:10.389Z,12.82
2022-08-30T07:37:38.443Z,13.05
2022-08-30T07:40:07.338Z,12.38
2022-08-30T07:42:35.418Z,13.07
2022-08-30T07:45:04.018Z,13.38
2022-08-30T07:47:33.909Z,11.93
2022-08-30T07:50:02.317Z,11.55
2022-08-30T07:52:31.174Z,12.15
2022-08-30T07:55:00.001Z,12.25
2022-08-30T07:57:28.963Z,12.30
2022-08-30T07:59:56.973Z,11.20
2022-08-30T08:02:25.006Z,12.23
2022-08-30T08:04:54.605Z,11.48
2022-08-30T08:07:22.601Z,10.55
2022-08-30T08:09:50.709Z,10.23
2022-08-30T08:12:18.677Z,10.57
2022-08-30T08:14:47.196Z,9.57
2022-08-30T08:17:15.211Z,10.05
2022-08-30T08:19:43.254Z,9.30
2022-08-30T08:22:20.847Z,8.90
2022-08-30T08:24:49.822Z,9.05
2022-08-30T08:27:18.146Z,7.97
2022-08-30T08:29:46.114Z,8.80
2022-08-30T08:32:14.307Z,8.07
2022-08-30T08:34:42.356Z,7.32
2022-08-30T08:37:10.341Z,7.90
2022-08-30T08:39:39.685Z,7.53
2022-08-30T08:42:17.669Z,7.55
2022-08-30T08:44:55.826Z,7.10
2022-08-30T08:47:30.939Z,6.80
2022-08-30T08:50:03.949Z,7.00
2022-08-30T08:52:55.995Z,7.85
2022-08-30T08:55:26.583Z,6.97
2022-08-30T08:57:54.686Z,6.72
2022-08-30T09:00:22.903Z,6.50
2022-08-30T09:02:58.173Z,6.80
2022-08-30T09:05:28.742Z,6.40
2022-08-30T09:08:06.499Z,6.93
2022-08-30T09:10:54.418Z,6.65
2022-08-30T09:13:23.047Z,6.90
2022-08-30T09:15:55.144Z,6.68
2022-08-30T09:21:32.685Z,6.00
2022-08-30T09:24:04.639Z,6.60
2022-08-30T09:26:37.026Z,6.78
2022-08-30T09:29:06.502Z,6.82
2022-08-30T09:31:47.387Z,7.68
2022-08-30T09:34:20.254Z,6.13
2022-08-30T09:36:51.412Z,6.00
2022-08-30T09:39:22.113Z,5.45
2022-08-30T09:42:13.623Z,5.60
2022-08-30T09:44:41.670Z,5.70
2022-08-30T09:47:24.195Z,6.30
2022-08-30T09:50:05.354Z,6.45
2022-08-30T09:52:48.297Z,6.03
2022-08-30T09:55:42.061Z,6.30
2022-08-30T09:58:20.887Z,6.15
2022-08-30T10:00:53.607Z,6.78
2022-08-30T10:03:40.384Z,6.00
2022-08-30T10:06:16.727Z,7.57
2022-08-30T10:08:55.256Z,6.38
2022-08-30T10:11:33.204Z,5.53
2022-08-30T10:14:35.162Z,4.97
2022-08-30T10:17:09.852Z,6.78
2022-08-30T10:20:03.070Z,6.10
2022-08-30T10:22:35.621Z,6.07
2022-08-30T10:25:10.273Z,5.57
2022-08-30T10:27:44.221Z,5.30
2022-08-30T10:30:15.815Z,6.50
2022-08-30T10:32:50.756Z,5.68
2022-08-30T10:35:21.860Z,5.32
2022-08-30T10:37:54.820Z,6.63
2022-08-30T10:40:48.136Z,6.95
2022-08-30T10:43:22.913Z,5.65
2022-08-30T10:45:56.417Z,5.75
2022-08-30T10:48:29.772Z,5.22
2022-08-30T10:51:04.048Z,5.40
2022-08-30T10:53:38.047Z,5.05
2022-08-30T10:56:13.161Z,4.82
2022-08-30T10:58:43.061Z,4.30
2022-08-30T11:01:28.448Z,4.85
2022-08-30T11:04:30.016Z,5.28
2022-08-30T11:07:10.050Z,4.20
2022-08-30T11:10:02.426Z,4.22
2022-08-30T11:12:36.543Z,4.78
2022-08-30T11:15:18.250Z,3.75
2022-08-30T11:17:59.843Z,3.80
2022-08-30T11:20:37.278Z,3.50
2022-08-30T11:23:29.070Z,3.10
2022-08-30T11:26:03.405Z,3.58
2022-08-30T11:29:04.707Z,3.10
2022-08-30T11:31:40.704Z,3.13
2022-08-30T11:34:11.667Z,3.67
2022-08-30T11:37:09.647Z,3.55
2022-08-30T11:39:55.068Z,3.47
2022-08-30T11:42:30.323Z,4.15
2022-08-30T11:45:36.209Z,4.45
2022-08-30T11:48:07.428Z,4.40
2022-08-30T11:50:49.188Z,4.28
2022-08-30T11:53:24.958Z,3.75
2022-08-30T11:56:08.759Z,4.10
2022-08-30T11:58:49.152Z,4.13
2022-08-30T12:04:15.432Z,3.92
2022-08-30T12:06:57.009Z,3.75
2022-08-30T12:10:04.801Z,3.92
2022-08-30T12:12:48.589Z,4.07
2022-08-30T12:15:47.665Z,4.10
2022-08-30T12:18:30.192Z,3.72
2022-08-30T12:21:04.922Z,4.05
2022-08-30T12:23:44.595Z,4.07
2022-08-30T12:26:16.920Z,3.65
2022-08-30T12:28:51.018Z,3.70
2022-08-30T12:31:22.106Z,3.90
2022-08-30T12:33:55.018Z,4.55
2022-08-30T12:36:35.577Z,3.97
2022-08-30T12:39:10.504Z,4.13
2022-08-30T12:41:43.321Z,4.95
2022-08-30T12:44:15.868Z,4.40
2022-08-30T12:46:46.552Z,4.25
2022-08-30T12:49:16.913Z,4.65
2022-08-30T12:51:45.990Z,3.72
2022-08-30T12:54:19.282Z,4.93
2022-08-30T12:56:55.192Z,4.80
2022-08-30T12:59:45.168Z,5.00
2022-08-30T13:02:22.386Z,4.05
2022-08-30T13:04:52.817Z,3.70
2022-08-30T13:07:30.312Z,3.95
2022-08-30T13:10:07.315Z,4.10
2022-08-30T13:12:38.369Z,3.67
2022-08-30T13:15:18.059Z,3.60
2022-08-30T13:17:48.267Z,4.25
2022-08-30T13:20:26.344Z,3.30
2022-08-30T13:23:06.942Z,4.20
2022-08-30T13:25:38.300Z,4.57
2022-08-30T13:28:08.251Z,4.30
2022-08-30T13:30:36.813Z,3.20
2022-08-30T13:33:05.094Z,3.28
2022-08-30T13:35:33.900Z,3.20
2022-08-30T13:38:04.147Z,3.40
2022-08-30T13:40:32.484Z,3.60
2022-08-30T13:43:01.960Z,3.50
2022-08-30T13:45:45.463Z,3.25
2022-08-30T13:48:15.341Z,3.28
2022-08-30T13:50:45.585Z,5.80
2022-08-30T13:53:13.710Z,3.88
2022-08-30T13:55:43.802Z,5.90
2022-08-30T13:58:13.395Z,4.07
2022-08-30T14:00:42.005Z,4.28
2022-08-30T14:03:11.736Z,4.88
2022-08-30T14:05:50.076Z,4.35
2022-08-30T14:11:11.355Z,4.47
2022-08-30T14:16:32.325Z,3.55
2022-08-30T14:19:01.308Z,3.80
2022-08-30T14:21:29.574Z,4.47
2022-08-30T14:23:59.855Z,3.92
2022-08-30T14:26:35.616Z,4.07
2022-08-30T14:29:09.233Z,4.63
2022-08-30T14:31:38.191Z,4.55
2022-08-30T14:34:07.138Z,4.57
2022-08-30T14:36:37.882Z,4.22
2022-08-30T14:39:09.646Z,4.15
2022-08-30T14:41:43.680Z,5.07
2022-08-30T14:44:13.881Z,5.20
2022-08-30T14:46:42.674Z,5.30
2022-08-30T14:49:11.962Z,4.50
2022-08-30T14:51:40.281Z,4.70
2022-08-30T14:54:08.992Z,4.78
2022-08-30T14:56:38.516Z,4.50
2022-08-30T14:59:06.916Z,4.60
2022-08-30T15:01:39.912Z,4.47
2022-08-30T15:04:09.588Z,4.40
2022-08-30T15:06:39.093Z,3.90
2022-08-30T15:09:09.504Z,4.40
2022-08-30T15:11:39.011Z,4.20
2022-08-30T15:14:07.300Z,4.22
2022-08-30T15:16:38.467Z,4.20
2022-08-30T15:19:09.862Z,3.90
2022-08-30T15:21:40.405Z,4.18
2022-08-30T15:24:10.586Z,4.28
2022-08-30T15:26:41.739Z,4.65
2022-08-30T15:29:10.660Z,5.40
2022-08-30T15:31:40.511Z,4.38
2022-08-30T15:34:09.119Z,4.32
2022-08-30T15:36:39.018Z,4.20
2022-08-30T15:39:07.698Z,4.22
2022-08-30T15:41:43.768Z,4.60
2022-08-30T15:44:13.056Z,4.30
2022-08-30T15:46:44.336Z,4.43
2022-08-30T15:49:14.424Z,4.20
2022-08-30T15:51:46.029Z,4.72
2022-08-30T15:54:16.937Z,4.15
2022-08-30T15:56:45.301Z,4.22
2022-08-30T15:59:15.314Z,4.80
2022-08-30T16:01:45.357Z,5.15
2022-08-30T16:04:17.132Z,4.93
2022-08-30T16:06:47.807Z,5.40
2022-08-30T16:09:16.503Z,4.80
2022-08-30T16:11:44.522Z,5.55
2022-08-30T16:14:12.587Z,4.80
2022-08-30T16:16:42.454Z,4.38
2022-08-30T16:19:11.855Z,4.30
2022-08-30T16:21:42.032Z,4.43
2022-08-30T16:24:13.605Z,5.20
2022-08-30T16:26:42.108Z,4.88
2022-08-30T16:29:10.358Z,5.22
2022-08-30T16:31:38.966Z,5.10
2022-08-30T16:34:07.930Z,5.63
2022-08-30T16:36:37.402Z,5.07
2022-08-30T16:39:08.452Z,5.68
2022-08-30T16:41:36.845Z,5.28
2022-08-30T16:44:05.421Z,5.00
2022-08-30T16:46:35.601Z,4.93
2022-08-30T16:49:05.628Z,5.03
2022-08-30T16:51:39.092Z,4.90
2022-08-30T16:54:08.646Z,5.07
2022-08-30T16:56:38.137Z,5.25
2022-08-30T16:59:11.190Z,5.30
2022-08-30T17:01:42.105Z,5.28
2022-08-30T17:04:11.300Z,5.13
2022-08-30T17:06:42.423Z,5.35
2022-08-30T17:09:11.477Z,6.00
2022-08-30T17:11:40.545Z,5.85
2022-08-30T17:14:09.095Z,7.40
2022-08-30T17:16:38.263Z,7.28
2022-08-30T17:19:08.242Z,6.28
2022-08-30T17:21:36.457Z,6.07
2022-08-30T17:24:08.387Z,6.28
2022-08-30T17:26:38.406Z,6.03
2022-08-30T17:29:07.759Z,6.10
2022-08-30T17:31:37.447Z,6.00
2022-08-30T17:34:06.727Z,5.45
2022-08-30T17:36:37.015Z,6.30
2022-08-30T17:39:10.569Z,5.63
2022-08-30T17:41:50.504Z,5.72
2022-08-30T17:44:21.730Z,5.97
2022-08-30T17:46:54.154Z,6.35
2022-08-30T17:49:22.536Z,5.80
2022-08-30T17:51:55.627Z,6.22
2022-08-30T17:54:25.800Z,6.00
2022-08-30T17:56:56.191Z,6.10
2022-08-30T17:59:25.643Z,6.32
2022-08-30T18:01:55.317Z,6.10
2022-08-30T18:04:24.922Z,5.60
2022-08-30T18:06:53.233Z,6.18
2022-08-30T18:09:21.406Z,5.70
2022-08-30T18:11:49.630Z,5.57
2022-08-30T18:14:19.536Z,6.00
2022-08-30T18:16:53.357Z,6.00
2022-08-30T18:19:22.887Z,6.20
2022-08-30T18:21:51.201Z,6.13
2022-08-30T18:24:19.742Z,6.88
2022-08-30T18:26:47.817Z,6.78
2022-08-30T18:29:26.174Z,7.15
2022-08-30T18:31:59.313Z,7.28
2022-08-30T18:34:27.945Z,7.10
2022-08-30T18:36:56.343Z,7.03
2022-08-30T18:39:24.451Z,6.88
2022-08-30T18:41:54.425Z,6.90
2022-08-30T18:44:28.386Z,7.47
2022-08-30T18:47:01.418Z,7.20
2022-08-30T18:49:32.425Z,7.15
2022-08-30T18:52:01.042Z,7.00
2022-08-30T18:54:30.178Z,6.93
2022-08-30T18:56:58.169Z,7.18
2022-08-30T18:59:36.501Z,6.55
2022-08-30T19:02:08.050Z,7.00
2022-08-30T19:04:37.837Z,6.80
2022-08-30T19:07:07.522Z,6.97
2022-08-30T19:09:36.855Z,6.97
2022-08-30T19:12:09.595Z,6.97
2022-08-30T19:14:37.969Z,7.38
2022-08-30T19:17:08.485Z,6.50
2022-08-30T19:19:48.428Z,6.25
2022-08-30T19:22:17.941Z,6.18
2022-08-30T19:24:47.232Z,6.78
2022-08-30T19:27:15.416Z,6.68
2022-08-30T19:32:33.406Z,7.05
2022-08-30T19:35:01.404Z,7.10
2022-08-30T19:37:30.692Z,6.68
2022-08-30T19:39:59.222Z,6.63
2022-08-30T19:42:28.976Z,7.00
2022-08-30T19:44:57.150Z,7.15
2022-08-30T19:47:25.429Z,6.95
2022-08-30T19:49:54.815Z,6.47
2022-08-30T19:52:22.977Z,7.05
2022-08-30T19:54:51.028Z,7.68
2022-08-30T19:57:19.012Z,7.47
2022-08-30T19:59:47.061Z,7.03
2022-08-30T20:02:15.282Z,6.45
2022-08-30T20:04:44.447Z,6.72
2022-08-30T20:07:14.057Z,6.80
2022-08-30T20:09:42.380Z,6.35
2022-08-30T20:12:10.354Z,6.43
2022-08-30T20:14:38.395Z,7.22
2022-08-30T20:17:07.239Z,6.55
2022-08-30T20:19:39.878Z,6.35
2022-08-30T20:22:08.501Z,6.50
2022-08-30T20:24:39.380Z,6.40
2022-08-30T20:27:12.470Z,6.03
2022-08-30T20:29:41.984Z,6.03
2022-08-30T20:32:10.001Z,7.22
2022-08-30T20:34:39.564Z,6.90
2022-08-30T20:37:09.843Z,6.93
2022-08-30T20:39:39.262Z,7.50
2022-08-30T20:42:07.858Z,6.68
2022-08-30T20:44:36.020Z,6.65
2022-08-30T20:47:05.199Z,7.25
2022-08-30T20:49:33.651Z,7.18
2022-08-30T20:52:01.646Z,6.90
2022-08-30T20:54:33.139Z,6.75
2022-08-30T20:57:02.790Z,7.18
2022-08-30T20:59:30.846Z,7.45
2022-08-30T21:01:59.784Z,6.53
2022-08-30T21:04:28.055Z,7.75
2022-08-30T21:06:56.046Z,7.05
2022-08-30T21:09:24.037Z,7.07
2022-08-30T21:11:53.652Z,7.30
2022-08-30T21:14:23.769Z,7.63
2022-08-30T21:16:51.818Z,7.03
2022-08-30T21:19:19.839Z,7.70
2022-08-30T21:21:47.859Z,7.95
2022-08-30T21:24:15.847Z,8.13
2022-08-30T21:26:44.274Z,7.30
2022-08-30T21:29:12.966Z,7.85
2022-08-30T21:31:42.837Z,8.00
2022-08-30T21:34:15.877Z,7.78
2022-08-30T21:36:48.164Z,7.30
2022-08-30T21:39:19.374Z,8.15
2022-08-30T21:41:48.106Z,7.47
2022-08-30T21:44:18.310Z,8.35
2022-08-30T21:46:49.071Z,8.18
2022-08-30T21:49:20.363Z,8.10
2022-08-30T21:51:50.124Z,7.65
2022-08-30T21:54:19.327Z,7.47
2022-08-30T21:56:49.454Z,7.15
2022-08-30T21:59:18.372Z,7.13
2022-08-30T22:01:49.234Z,7.32
2022-08-30T22:04:17.283Z,7.18
2022-08-30T22:06:48.134Z,7.45
2022-08-30T22:09:17.995Z,7.05
2022-08-30T22:11:47.248Z,6.82
2022-08-30T22:14:16.733Z,6.80
2022-08-30T22:16:45.321Z,6.85
2022-08-30T22:19:16.953Z,7.80
2022-08-30T22:21:48.055Z,6.68
2022-08-30T22:24:17.129Z,7.18
2022-08-30T22:26:46.816Z,7.47
2022-08-30T22:29:15.079Z,7.55
2022-08-30T22:31:44.386Z,7.85
2022-08-30T22:34:13.845Z,7.80
2022-08-30T22:36:41.823Z,7.50
2022-08-30T22:39:10.737Z,8.07
2022-08-30T22:41:40.849Z,7.63
2022-08-30T22:44:08.842Z,7.78
2022-08-30T22:46:37.852Z,7.90
2022-08-30T22:49:07.192Z,7.75
2022-08-30T22:51:36.571Z,7.95
2022-08-30T22:54:06.452Z,8.50
2022-08-30T22:56:36.327Z,9.10
2022-08-30T22:59:04.947Z,7.85
2022-08-30T23:01:38.021Z,8.30
2022-08-30T23:04:06.820Z,8.13
2022-08-30T23:06:36.975Z,9.05
2022-08-30T23:09:05.897Z,8.52
2022-08-30T23:11:33.963Z,7.70
2022-08-30T23:14:02.238Z,7.65
2022-08-30T23:16:30.368Z,7.70
2022-08-30T23:18:58.411Z,7.60
2022-08-30T23:21:28.747Z,8.18
2022-08-30T23:24:17.055Z,8.70
2022-08-30T23:27:03.939Z,8.00
2022-08-30T23:29:50.467Z,7.75
2022-08-30T23:32:36.279Z,8.07
2022-08-30T23:35:29.091Z,7.82
2022-08-30T23:38:15.901Z,7.50
2022-08-30T23:41:02.723Z,8.00
2022-08-30T23:43:48.443Z,7.75
2022-08-30T23:46:34.215Z,8.02
2022-08-30T23:49:19.948Z,7.82
2022-08-30T23:52:05.527Z,8.52
2022-08-30T23:54:51.085Z,8.52
2022-08-30T23:57:37.934Z,9.07
